Ambia, IN (47917)

12:12 PM EST on March 03, 2015 (GMT -0500)
The Gress's | Change Station
CLOSE
Current Station
Personal Weather Station
Location: Hoopeston, IL
Elevation: 702 ft
Nearby Weather Stations
Active Advisory: Winter Weather Advisory Active Notice: Public Information Statement

Elev 702 ft 40.46 °N, 87.68 °W | Updated 12 minutes ago

Overcast
Overcast
34.0 °F
Feels Like 34 °F
N
3.0
Wind Variable Wind from SW

Today
High -- | Low -- °F
--% Chance of Precip.
Yesterday
High -- | Low -- °F
Precip. -- in
7:20 AM 6:43 PM
Waxing Gibbous, 96% visible
Pressure 29.73 in
Visibility 3.0 miles
Clouds Overcast 500 ft
Windchill 34 °F
Dew Point 33 °F
Humidity 94%
Rainfall 0.00 in
Snow Depth Not available.
UV 2 out of 12
Pollen .50 out of 12
Air Quality Not available.
Flu Activity Not available.
METAR KDNV 031655Z AUTO 19016G21KT 3SM -RA OVC005 01/00 A2973 RMK AO2 T00060000

More Conditions Fewer Conditions

Pressure 29.73 in
Visibility 3.0 miles
Clouds Overcast 500 ft
Windchill 34 °F
Dew Point 33 °F
Humidity 94%
Rainfall 0.00 in
Snow Depth Not available.
UV 2 out of 12
Pollen .50 out of 12
Air Quality Not available.
Flu Activity Not available.
METAR KDNV 031655Z AUTO 19016G21KT 3SM -RA OVC005 01/00 A2973 RMK AO2 T00060000

More Conditions Fewer Conditions

10-Day Weather Forecast

Almanac

Astronomy

Mar. 03, 2015 Rise Set
Actual Time
Civil Twilight
Nautical Twilight
Astronomical Twilight
Moon
Length of Visible Light
Length of Day
Tomorrow will be .
, % of the Moon is Illuminated

Today's Extremes

State Highs State Lows

Community

WunderPhotos

Upload Photos

1,802,174 photos uploaded!

WunderBlogs® & News

Nearby

Air Quality

  Air Quality AQ Index Pollutant
Not available.

Snow Depth

Station Depth Elevation

Earthquake Activity

City Distance Mag. Time & Date
Minimum magnitude displayed is 2.5.

Coastal Water Temperatures

Place Temperature

Nearby Weather Stations

Winter Weather Advisory
Statement as of 11:21 AM EST on March 03, 2015

... Winter Weather Advisory remains in effect until noon CST /1 PM
EST/ today...

* timing... rest of this morning.

* Ice accumulations... some lingering light freezing rain or
drizzle will result in minor ice accumulations on primarily
elevated and untreated surfaces.

Precautionary/preparedness actions...

A Winter Weather Advisory means that periods of snow... sleet... or
freezing rain will cause travel difficulties. Be prepared for
slippery roads and limited visibilities... and use caution while
driving.



Izzi

Visit US at http://weather.Gov/Chicago (all lowercase)

Follow US on facebook... twitter... and youtube at:
www.Facebook.Com/nwschicago
www.Twitter.Com/nwschicago